Terminal Aerodrome Forecast
Issued by NWS

Home | Current Version | Previous Version | Text Only | Print | Product List | Glossary On
Versions: 1 2 3 4 5 6 7 8 9 10 11 12 13 14 15 16 17 18 19 20
000
FTUS41 KCLE 310533
TAFFDY
TAF
KFDY 310533Z 3106/0106 VRB03KT P6SM SKC
     FM310800 VRB03KT 4SM BR SKC
     FM311000 23003KT 2SM BR SKC
     FM311300 23006KT 5SM HZ FEW100
     FM311500 24008KT P6SM SCT050=

USA.gov is the U.S. government's official web portal to all federal, state and local government web resources and services.